SBI009 UHWW-RKSI
Flight info
| Callsign | SBI009 |
|---|---|
| Flight time | 1h 18m |
| Altitude | 36000 |
| Route | VATIS2G VATIS A900 RIVAT G711 KANSU/N0457F380 Y233 BUSKO B467 KAE Y697 BIKSI |
| Aircraft | A20N/M-SDE2E3FGHIRWXY/LB1 |
Departure
| Time | 2026-05-05 17:01 |
|---|---|
| Airport | Vladivostok International Airport (UHWW) |
Arrival
| Time | 2026-05-05 18:20 |
|---|---|
| Airport | Incheon International Airport (RKSI) |
| Time | Latitude | Longitude | Altitude | Speed | Heading |
|---|---|---|---|---|---|
| 2026-05-05 16:37 | 43.39904 | 132.16486 | 53 ft | 0 kts | 151° |
| 2026-05-05 16:56 | 43.39901 | 132.16489 | 53 ft | 1 kts | 151° |
| 2026-05-05 16:56 | 43.39890 | 132.16496 | 53 ft | 2 kts | 150° |
| 2026-05-05 16:57 | 43.39876 | 132.16516 | 53 ft | 3 kts | 126° |
| 2026-05-05 16:57 | 43.39867 | 132.16551 | 53 ft | 4 kts | 91° |
| 2026-05-05 16:57 | 43.39877 | 132.16597 | 53 ft | 5 kts | 66° |
| 2026-05-05 16:57 | 43.39898 | 132.16646 | 53 ft | 6 kts | 59° |
| 2026-05-05 16:58 | 43.39921 | 132.16705 | 53 ft | 7 kts | 63° |
| 2026-05-05 16:58 | 43.39948 | 132.16772 | 53 ft | 9 kts | 60° |
| 2026-05-05 16:58 | 43.39990 | 132.16876 | 53 ft | 13 kts | 60° |
| 2026-05-05 16:58 | 43.40037 | 132.16991 | 53 ft | 13 kts | 60° |
| 2026-05-05 16:59 | 43.40098 | 132.17087 | 53 ft | 13 kts | 9° |
| 2026-05-05 16:59 | 43.40186 | 132.17035 | 53 ft | 14 kts | 328° |
| 2026-05-05 16:59 | 43.40273 | 132.16966 | 53 ft | 14 kts | 334° |
| 2026-05-05 16:59 | 43.40363 | 132.16904 | 53 ft | 14 kts | 332° |
| 2026-05-05 17:00 | 43.40430 | 132.16815 | 53 ft | 14 kts | 266° |
| 2026-05-05 17:00 | 43.40406 | 132.16733 | 53 ft | 0 kts | 240° |
| 2026-05-05 17:00 | 43.40302 | 132.16493 | 53 ft | 68 kts | 242° |
| 2026-05-05 17:01 | 43.39948 | 132.15614 | 53 ft | 139 kts | 239° |
| 2026-05-05 17:01 | 43.39392 | 132.14325 | 395 ft | 165 kts | 240° |
| 2026-05-05 17:01 | 43.38840 | 132.12958 | 1118 ft | 167 kts | 242° |
| 2026-05-05 17:01 | 43.38295 | 132.11581 | 1893 ft | 168 kts | 242° |
| 2026-05-05 17:02 | 43.37716 | 132.10124 | 2426 ft | 182 kts | 242° |
| 2026-05-05 17:02 | 43.37074 | 132.08522 | 2933 ft | 199 kts | 242° |
| 2026-05-05 17:02 | 43.36372 | 132.06776 | 3370 ft | 223 kts | 242° |
| 2026-05-05 17:02 | 43.35596 | 132.04858 | 4017 ft | 237 kts | 242° |
| 2026-05-05 17:03 | 43.34777 | 132.02890 | 4904 ft | 242 kts | 237° |
| 2026-05-05 17:03 | 43.33541 | 132.01355 | 5790 ft | 249 kts | 206° |
| 2026-05-05 17:03 | 43.31863 | 132.00923 | 6663 ft | 255 kts | 174° |
| 2026-05-05 17:03 | 43.30415 | 132.01633 | 7395 ft | 260 kts | 144° |
| 2026-05-05 17:04 | 43.29054 | 132.03261 | 8244 ft | 264 kts | 135° |
| 2026-05-05 17:04 | 43.28025 | 132.04658 | 8873 ft | 268 kts | 135° |
| 2026-05-05 17:04 | 43.26704 | 132.06453 | 9671 ft | 273 kts | 136° |
| 2026-05-05 17:04 | 43.25332 | 132.08276 | 10474 ft | 277 kts | 137° |
| 2026-05-05 17:05 | 43.23927 | 132.10107 | 11264 ft | 281 kts | 137° |
| 2026-05-05 17:05 | 43.22507 | 132.11934 | 12033 ft | 285 kts | 138° |
| 2026-05-05 17:05 | 43.21055 | 132.13794 | 12796 ft | 289 kts | 138° |
| 2026-05-05 17:05 | 43.19559 | 132.15691 | 13545 ft | 294 kts | 142° |
| 2026-05-05 17:06 | 43.17828 | 132.17058 | 14233 ft | 292 kts | 168° |
| 2026-05-05 17:06 | 43.15831 | 132.17339 | 14780 ft | 296 kts | 187° |
| 2026-05-05 17:06 | 43.13722 | 132.17142 | 15177 ft | 311 kts | 189° |
| 2026-05-05 17:06 | 43.11491 | 132.16875 | 15529 ft | 329 kts | 189° |
| 2026-05-05 17:07 | 43.09177 | 132.16621 | 15845 ft | 347 kts | 188° |
| 2026-05-05 17:07 | 43.06685 | 132.16382 | 16156 ft | 364 kts | 188° |
| 2026-05-05 17:07 | 43.04136 | 132.16161 | 16633 ft | 375 kts | 188° |
| 2026-05-05 17:07 | 43.01534 | 132.15953 | 17322 ft | 378 kts | 188° |
| 2026-05-05 17:08 | 42.98897 | 132.15745 | 18024 ft | 380 kts | 188° |
| 2026-05-05 17:08 | 42.96251 | 132.15540 | 18688 ft | 383 kts | 188° |
| 2026-05-05 17:08 | 42.93593 | 132.15329 | 19336 ft | 386 kts | 189° |
| 2026-05-05 17:08 | 42.90920 | 132.15117 | 19979 ft | 388 kts | 189° |
| 2026-05-05 17:09 | 42.88229 | 132.14911 | 20613 ft | 392 kts | 188° |
| 2026-05-05 17:09 | 42.85510 | 132.14867 | 21229 ft | 397 kts | 185° |
| 2026-05-05 17:09 | 42.82742 | 132.15047 | 21821 ft | 402 kts | 182° |
| 2026-05-05 17:09 | 42.79952 | 132.15299 | 22394 ft | 406 kts | 182° |
| 2026-05-05 17:10 | 42.77120 | 132.15556 | 22957 ft | 409 kts | 183° |
| 2026-05-05 17:10 | 42.74262 | 132.15814 | 23515 ft | 412 kts | 183° |
| 2026-05-05 17:10 | 42.71427 | 132.16067 | 24048 ft | 415 kts | 183° |
| 2026-05-05 17:10 | 42.68555 | 132.16321 | 24567 ft | 418 kts | 184° |
| 2026-05-05 17:11 | 42.65636 | 132.16577 | 25079 ft | 421 kts | 184° |
| 2026-05-05 17:11 | 42.62699 | 132.16834 | 25575 ft | 424 kts | 184° |
| 2026-05-05 17:11 | 42.59773 | 132.17090 | 26049 ft | 427 kts | 184° |
| 2026-05-05 17:11 | 42.56814 | 132.17348 | 26517 ft | 430 kts | 184° |
| 2026-05-05 17:12 | 42.53816 | 132.17609 | 26975 ft | 433 kts | 184° |
| 2026-05-05 17:12 | 42.50785 | 132.17871 | 27411 ft | 436 kts | 184° |
| 2026-05-05 17:12 | 42.47735 | 132.18135 | 27825 ft | 438 kts | 184° |
| 2026-05-05 17:12 | 42.44691 | 132.18401 | 28227 ft | 441 kts | 185° |
| 2026-05-05 17:13 | 42.41633 | 132.18666 | 28611 ft | 443 kts | 185° |
| 2026-05-05 17:13 | 42.38569 | 132.18930 | 28970 ft | 446 kts | 185° |
| 2026-05-05 17:13 | 42.35444 | 132.19199 | 29325 ft | 448 kts | 185° |
| 2026-05-05 17:13 | 42.32361 | 132.19464 | 29657 ft | 450 kts | 185° |
| 2026-05-05 17:14 | 42.29250 | 132.19737 | 29972 ft | 452 kts | 185° |
| 2026-05-05 17:14 | 42.26112 | 132.20012 | 30270 ft | 454 kts | 185° |
| 2026-05-05 17:14 | 42.22944 | 132.20288 | 30554 ft | 455 kts | 185° |
| 2026-05-05 17:14 | 42.19819 | 132.20561 | 30908 ft | 455 kts | 185° |
| 2026-05-05 17:15 | 42.16672 | 132.20837 | 31307 ft | 453 kts | 185° |
| 2026-05-05 17:15 | 42.13574 | 132.21107 | 31685 ft | 451 kts | 185° |
| 2026-05-05 17:15 | 42.10440 | 132.21381 | 32040 ft | 450 kts | 186° |
| 2026-05-05 17:15 | 42.07309 | 132.21651 | 32382 ft | 450 kts | 186° |
| 2026-05-05 17:16 | 42.04201 | 132.21919 | 32720 ft | 449 kts | 186° |
| 2026-05-05 17:16 | 42.01111 | 132.22185 | 33058 ft | 448 kts | 186° |
| 2026-05-05 17:16 | 41.98040 | 132.22449 | 33388 ft | 447 kts | 186° |
| 2026-05-05 17:16 | 41.94927 | 132.22716 | 33705 ft | 446 kts | 186° |
| 2026-05-05 17:17 | 41.91853 | 132.22978 | 34008 ft | 445 kts | 186° |
| 2026-05-05 17:17 | 41.88744 | 132.23244 | 34282 ft | 445 kts | 186° |
| 2026-05-05 17:17 | 41.85698 | 132.23503 | 34502 ft | 446 kts | 186° |
| 2026-05-05 17:17 | 41.82603 | 132.23767 | 34707 ft | 448 kts | 186° |
| 2026-05-05 17:18 | 41.79482 | 132.24033 | 34909 ft | 449 kts | 186° |
| 2026-05-05 17:18 | 41.76373 | 132.24298 | 35104 ft | 450 kts | 186° |
| 2026-05-05 17:18 | 41.73283 | 132.24561 | 35303 ft | 450 kts | 186° |
| 2026-05-05 17:18 | 41.70125 | 132.24829 | 35497 ft | 451 kts | 186° |
| 2026-05-05 17:19 | 41.67033 | 132.25092 | 35672 ft | 452 kts | 186° |
| 2026-05-05 17:19 | 41.63902 | 132.25357 | 35800 ft | 453 kts | 186° |
| 2026-05-05 17:19 | 41.57646 | 132.25886 | 35809 ft | 454 kts | 186° |
| 2026-05-05 17:20 | 41.51376 | 132.26417 | 35813 ft | 453 kts | 186° |
| 2026-05-05 17:20 | 41.45075 | 132.26944 | 35813 ft | 454 kts | 186° |
| 2026-05-05 17:21 | 41.38783 | 132.27457 | 35813 ft | 453 kts | 186° |
| 2026-05-05 17:22 | 41.29702 | 132.26253 | 35812 ft | 427 kts | 208° |
| 2026-05-05 17:22 | 41.24482 | 132.22806 | 35813 ft | 414 kts | 223° |
| 2026-05-05 17:23 | 41.20015 | 132.18105 | 35815 ft | 413 kts | 227° |
| 2026-05-05 17:23 | 41.15592 | 132.13260 | 35814 ft | 414 kts | 227° |
| 2026-05-05 17:24 | 41.11169 | 132.08434 | 35815 ft | 413 kts | 227° |
| 2026-05-05 17:24 | 41.06746 | 132.03630 | 35816 ft | 409 kts | 227° |
| 2026-05-05 17:25 | 41.02390 | 131.98912 | 35817 ft | 402 kts | 228° |
| 2026-05-05 17:25 | 40.98114 | 131.94284 | 35817 ft | 396 kts | 229° |
| 2026-05-05 17:26 | 40.93933 | 131.89764 | 35815 ft | 390 kts | 229° |
| 2026-05-05 17:26 | 40.89787 | 131.85289 | 35813 ft | 382 kts | 229° |
| 2026-05-05 17:27 | 40.85665 | 131.80870 | 35814 ft | 381 kts | 229° |
| 2026-05-05 17:27 | 40.83611 | 131.78618 | 35786 ft | 387 kts | 212° |
| 2026-05-05 17:27 | 40.81501 | 131.76334 | 35806 ft | 395 kts | 211° |
| 2026-05-05 17:28 | 40.77136 | 131.71704 | 35818 ft | 412 kts | 212° |
| 2026-05-05 17:28 | 40.72607 | 131.66882 | 35820 ft | 429 kts | 212° |
| 2026-05-05 17:29 | 40.67869 | 131.61821 | 35820 ft | 445 kts | 213° |
| 2026-05-05 17:29 | 40.62985 | 131.56607 | 35819 ft | 460 kts | 213° |
| 2026-05-05 17:30 | 40.57964 | 131.51251 | 35819 ft | 473 kts | 213° |
| 2026-05-05 17:30 | 40.53123 | 131.45206 | 35820 ft | 491 kts | 223° |
| 2026-05-05 17:31 | 40.48639 | 131.38368 | 35816 ft | 494 kts | 225° |
| 2026-05-05 17:31 | 40.44185 | 131.31531 | 35814 ft | 494 kts | 224° |
| 2026-05-05 17:32 | 40.39688 | 131.24686 | 35814 ft | 494 kts | 224° |
| 2026-05-05 17:32 | 40.35190 | 131.17903 | 35814 ft | 494 kts | 223° |
| 2026-05-05 17:33 | 40.30708 | 131.11179 | 35814 ft | 493 kts | 223° |
| 2026-05-05 17:33 | 40.26189 | 131.04419 | 35814 ft | 493 kts | 223° |
| 2026-05-05 17:34 | 40.21667 | 130.97672 | 35814 ft | 493 kts | 223° |
| 2026-05-05 17:34 | 40.17152 | 130.90950 | 35814 ft | 493 kts | 223° |
| 2026-05-05 17:35 | 40.12633 | 130.84236 | 35814 ft | 494 kts | 223° |
| 2026-05-05 17:35 | 40.08083 | 130.77492 | 35814 ft | 494 kts | 223° |
| 2026-05-05 17:36 | 40.03568 | 130.70811 | 35815 ft | 494 kts | 223° |
| 2026-05-05 17:36 | 39.99031 | 130.64114 | 35815 ft | 494 kts | 223° |
| 2026-05-05 17:37 | 39.94497 | 130.57439 | 35815 ft | 494 kts | 223° |
| 2026-05-05 17:37 | 39.89936 | 130.50735 | 35815 ft | 494 kts | 223° |
| 2026-05-05 17:38 | 39.85363 | 130.44066 | 35814 ft | 494 kts | 223° |
| 2026-05-05 17:38 | 39.80826 | 130.37460 | 35814 ft | 494 kts | 223° |
| 2026-05-05 17:39 | 39.76255 | 130.30782 | 35813 ft | 494 kts | 223° |
| 2026-05-05 17:39 | 39.71719 | 130.24142 | 35814 ft | 493 kts | 223° |
| 2026-05-05 17:40 | 39.67164 | 130.17508 | 35814 ft | 493 kts | 223° |
| 2026-05-05 17:40 | 39.62584 | 130.10860 | 35814 ft | 493 kts | 223° |
| 2026-05-05 17:41 | 39.58025 | 130.04260 | 35814 ft | 493 kts | 223° |
| 2026-05-05 17:41 | 39.53448 | 129.97650 | 35814 ft | 493 kts | 223° |
| 2026-05-05 17:42 | 39.48863 | 129.91042 | 35814 ft | 493 kts | 223° |
| 2026-05-05 17:42 | 39.44289 | 129.84462 | 35814 ft | 493 kts | 223° |
| 2026-05-05 17:43 | 39.39725 | 129.77913 | 35814 ft | 493 kts | 223° |
| 2026-05-05 17:43 | 39.35137 | 129.71343 | 35814 ft | 493 kts | 223° |
| 2026-05-05 17:44 | 39.30542 | 129.64775 | 35814 ft | 493 kts | 223° |
| 2026-05-05 17:44 | 39.25958 | 129.58237 | 35815 ft | 494 kts | 223° |
| 2026-05-05 17:45 | 39.21333 | 129.51656 | 35815 ft | 494 kts | 223° |
| 2026-05-05 17:45 | 39.16737 | 129.45128 | 35815 ft | 494 kts | 223° |
| 2026-05-05 17:46 | 39.12103 | 129.38560 | 35815 ft | 494 kts | 223° |
| 2026-05-05 17:46 | 39.07513 | 129.32060 | 35813 ft | 493 kts | 222° |
| 2026-05-05 17:47 | 39.02915 | 129.25539 | 35814 ft | 493 kts | 222° |
| 2026-05-05 17:47 | 38.98283 | 129.19000 | 35814 ft | 493 kts | 222° |
| 2026-05-05 17:48 | 38.93684 | 129.12532 | 35814 ft | 493 kts | 222° |
| 2026-05-05 17:48 | 38.89046 | 129.06029 | 35815 ft | 493 kts | 222° |
| 2026-05-05 17:49 | 38.84421 | 128.99596 | 35814 ft | 493 kts | 222° |
| 2026-05-05 17:49 | 38.79798 | 128.93164 | 35814 ft | 493 kts | 222° |
| 2026-05-05 17:50 | 38.75158 | 128.86705 | 35814 ft | 493 kts | 222° |
| 2026-05-05 17:50 | 38.70504 | 128.80235 | 35814 ft | 493 kts | 222° |
| 2026-05-05 17:51 | 38.65872 | 128.73807 | 35814 ft | 493 kts | 222° |
| 2026-05-05 17:51 | 38.61227 | 128.67374 | 35814 ft | 493 kts | 222° |
| 2026-05-05 17:52 | 38.56560 | 128.60921 | 35814 ft | 493 kts | 222° |
| 2026-05-05 17:52 | 38.52464 | 128.55269 | 35814 ft | 493 kts | 222° |
| 2026-05-05 17:53 | 38.47838 | 128.48900 | 35814 ft | 493 kts | 222° |
| 2026-05-05 17:53 | 38.43174 | 128.42488 | 35709 ft | 491 kts | 222° |
| 2026-05-05 17:53 | 38.40855 | 128.39302 | 35204 ft | 489 kts | 221° |
| 2026-05-05 17:54 | 38.38546 | 128.36134 | 34315 ft | 494 kts | 221° |
| 2026-05-05 17:54 | 38.36199 | 128.32919 | 33296 ft | 501 kts | 221° |
| 2026-05-05 17:54 | 38.33810 | 128.29654 | 32236 ft | 507 kts | 222° |
| 2026-05-05 17:54 | 38.31425 | 128.26398 | 31160 ft | 514 kts | 223° |
| 2026-05-05 17:55 | 38.28967 | 128.23044 | 30209 ft | 516 kts | 224° |
| 2026-05-05 17:55 | 38.26541 | 128.19727 | 29598 ft | 511 kts | 225° |
| 2026-05-05 17:55 | 38.24156 | 128.16466 | 28982 ft | 507 kts | 225° |
| 2026-05-05 17:55 | 38.21749 | 128.13181 | 28353 ft | 504 kts | 226° |
| 2026-05-05 17:56 | 38.19371 | 128.09943 | 27727 ft | 500 kts | 226° |
| 2026-05-05 17:56 | 38.17017 | 128.06743 | 27135 ft | 496 kts | 227° |
| 2026-05-05 17:56 | 38.14669 | 128.03554 | 26653 ft | 490 kts | 227° |
| 2026-05-05 17:56 | 38.12355 | 128.00413 | 26198 ft | 483 kts | 227° |
| 2026-05-05 17:57 | 38.10087 | 127.97342 | 25763 ft | 476 kts | 228° |
| 2026-05-05 17:57 | 38.07834 | 127.94293 | 25336 ft | 470 kts | 228° |
| 2026-05-05 17:57 | 38.05641 | 127.91328 | 24926 ft | 463 kts | 229° |
| 2026-05-05 17:57 | 38.03455 | 127.88377 | 24522 ft | 457 kts | 229° |
| 2026-05-05 17:58 | 38.01286 | 127.85451 | 24119 ft | 451 kts | 229° |
| 2026-05-05 17:58 | 37.99152 | 127.82574 | 23720 ft | 446 kts | 229° |
| 2026-05-05 17:58 | 37.97051 | 127.79744 | 23312 ft | 441 kts | 230° |
| 2026-05-05 17:58 | 37.94961 | 127.76932 | 22892 ft | 436 kts | 230° |
| 2026-05-05 17:59 | 37.92903 | 127.74166 | 22497 ft | 431 kts | 230° |
| 2026-05-05 17:59 | 37.90854 | 127.71412 | 22139 ft | 429 kts | 230° |
| 2026-05-05 17:59 | 37.88790 | 127.68645 | 21797 ft | 427 kts | 230° |
| 2026-05-05 17:59 | 37.86753 | 127.65934 | 21433 ft | 423 kts | 230° |
| 2026-05-05 18:00 | 37.84734 | 127.63247 | 21057 ft | 419 kts | 230° |
| 2026-05-05 18:00 | 37.82749 | 127.60601 | 20678 ft | 416 kts | 231° |
| 2026-05-05 18:00 | 37.80760 | 127.57948 | 20271 ft | 412 kts | 231° |
| 2026-05-05 18:00 | 37.78810 | 127.55346 | 19825 ft | 408 kts | 231° |
| 2026-05-05 18:01 | 37.76872 | 127.52760 | 19439 ft | 403 kts | 231° |
| 2026-05-05 18:01 | 37.74949 | 127.50195 | 19059 ft | 397 kts | 231° |
| 2026-05-05 18:01 | 37.73061 | 127.47680 | 18675 ft | 391 kts | 231° |
| 2026-05-05 18:01 | 37.71204 | 127.45206 | 18290 ft | 387 kts | 231° |
| 2026-05-05 18:02 | 37.69362 | 127.42754 | 17898 ft | 382 kts | 231° |
| 2026-05-05 18:02 | 37.67538 | 127.40325 | 17471 ft | 379 kts | 231° |
| 2026-05-05 18:02 | 37.65747 | 127.37943 | 17074 ft | 374 kts | 231° |
| 2026-05-05 18:02 | 37.63956 | 127.35564 | 16675 ft | 370 kts | 231° |
| 2026-05-05 18:03 | 37.62192 | 127.33218 | 16275 ft | 367 kts | 231° |
| 2026-05-05 18:03 | 37.60455 | 127.30899 | 15877 ft | 363 kts | 231° |
| 2026-05-05 18:03 | 37.58725 | 127.28596 | 15476 ft | 360 kts | 231° |
| 2026-05-05 18:03 | 37.57027 | 127.26340 | 15079 ft | 357 kts | 230° |
| 2026-05-05 18:04 | 37.55324 | 127.24082 | 14675 ft | 354 kts | 230° |
| 2026-05-05 18:04 | 37.53630 | 127.21839 | 14266 ft | 351 kts | 230° |
| 2026-05-05 18:04 | 37.51953 | 127.19621 | 13858 ft | 349 kts | 230° |
| 2026-05-05 18:04 | 37.50279 | 127.17409 | 13477 ft | 345 kts | 230° |
| 2026-05-05 18:05 | 37.48624 | 127.15225 | 13083 ft | 342 kts | 230° |
| 2026-05-05 18:05 | 37.46989 | 127.13068 | 12668 ft | 340 kts | 230° |
| 2026-05-05 18:05 | 37.45360 | 127.10921 | 12238 ft | 337 kts | 230° |
| 2026-05-05 18:05 | 37.43756 | 127.08807 | 11815 ft | 334 kts | 229° |
| 2026-05-05 18:06 | 37.42164 | 127.06715 | 11390 ft | 332 kts | 229° |
| 2026-05-05 18:06 | 37.41097 | 127.05312 | 11102 ft | 330 kts | 229° |
| 2026-05-05 18:06 | 37.38982 | 127.02535 | 10531 ft | 327 kts | 229° |
| 2026-05-05 18:06 | 37.37423 | 127.00487 | 10207 ft | 321 kts | 229° |
| 2026-05-05 18:07 | 37.35914 | 126.98512 | 10127 ft | 307 kts | 230° |
| 2026-05-05 18:07 | 37.34463 | 126.96615 | 10043 ft | 293 kts | 230° |
| 2026-05-05 18:07 | 37.33084 | 126.94811 | 9965 ft | 280 kts | 230° |
| 2026-05-05 18:07 | 37.31736 | 126.93045 | 9624 ft | 277 kts | 230° |
| 2026-05-05 18:08 | 37.30415 | 126.91312 | 9299 ft | 275 kts | 230° |
| 2026-05-05 18:08 | 37.29096 | 126.89586 | 8980 ft | 272 kts | 230° |
| 2026-05-05 18:08 | 37.27789 | 126.87875 | 8668 ft | 269 kts | 230° |
| 2026-05-05 18:08 | 37.26507 | 126.86198 | 8365 ft | 267 kts | 230° |
| 2026-05-05 18:09 | 37.25215 | 126.84509 | 8060 ft | 264 kts | 230° |
| 2026-05-05 18:09 | 37.23954 | 126.82862 | 7764 ft | 262 kts | 230° |
| 2026-05-05 18:09 | 37.22700 | 126.81226 | 7430 ft | 261 kts | 230° |
| 2026-05-05 18:09 | 37.21451 | 126.79596 | 7116 ft | 259 kts | 230° |
| 2026-05-05 18:10 | 37.20207 | 126.77976 | 7009 ft | 250 kts | 230° |
| 2026-05-05 18:10 | 37.19048 | 126.76471 | 6995 ft | 235 kts | 231° |
| 2026-05-05 18:10 | 37.17962 | 126.75027 | 6980 ft | 218 kts | 238° |
| 2026-05-05 18:10 | 37.17417 | 126.73383 | 6955 ft | 195 kts | 270° |
| 2026-05-05 18:11 | 37.17641 | 126.71770 | 6945 ft | 188 kts | 297° |
| 2026-05-05 18:11 | 37.18454 | 126.70508 | 6674 ft | 188 kts | 321° |
| 2026-05-05 18:11 | 37.19514 | 126.69558 | 6379 ft | 189 kts | 323° |
| 2026-05-05 18:11 | 37.20593 | 126.68658 | 6236 ft | 178 kts | 324° |
| 2026-05-05 18:12 | 37.21596 | 126.67824 | 6009 ft | 172 kts | 323° |
| 2026-05-05 18:12 | 37.22587 | 126.66984 | 5732 ft | 168 kts | 323° |
| 2026-05-05 18:12 | 37.23533 | 126.66168 | 5472 ft | 163 kts | 322° |
| 2026-05-05 18:12 | 37.24450 | 126.65367 | 5140 ft | 158 kts | 322° |
| 2026-05-05 18:13 | 37.25328 | 126.64592 | 4815 ft | 150 kts | 322° |
| 2026-05-05 18:13 | 37.26163 | 126.63849 | 4427 ft | 146 kts | 322° |
| 2026-05-05 18:13 | 37.26986 | 126.63114 | 4056 ft | 141 kts | 321° |
| 2026-05-05 18:13 | 37.27775 | 126.62407 | 3827 ft | 140 kts | 321° |
| 2026-05-05 18:14 | 37.28569 | 126.61694 | 3651 ft | 140 kts | 321° |
| 2026-05-05 18:14 | 37.29353 | 126.60989 | 3615 ft | 139 kts | 321° |
| 2026-05-05 18:14 | 37.30151 | 126.60274 | 3604 ft | 140 kts | 321° |
| 2026-05-05 18:14 | 37.30946 | 126.59560 | 3506 ft | 140 kts | 321° |
| 2026-05-05 18:15 | 37.31677 | 126.58906 | 3345 ft | 139 kts | 321° |
| 2026-05-05 18:15 | 37.32253 | 126.58390 | 3207 ft | 139 kts | 321° |
| 2026-05-05 18:15 | 37.33046 | 126.57682 | 3021 ft | 138 kts | 321° |
| 2026-05-05 18:15 | 37.33825 | 126.56987 | 2838 ft | 138 kts | 321° |
| 2026-05-05 18:16 | 37.34613 | 126.56284 | 2653 ft | 137 kts | 321° |
| 2026-05-05 18:16 | 37.35387 | 126.55594 | 2472 ft | 137 kts | 321° |
| 2026-05-05 18:16 | 37.36166 | 126.54900 | 2290 ft | 137 kts | 321° |
| 2026-05-05 18:16 | 37.36945 | 126.54207 | 2108 ft | 136 kts | 321° |
| 2026-05-05 18:17 | 37.37711 | 126.53525 | 1929 ft | 136 kts | 321° |
| 2026-05-05 18:17 | 37.38490 | 126.52832 | 1746 ft | 135 kts | 321° |
| 2026-05-05 18:17 | 37.39250 | 126.52155 | 1568 ft | 135 kts | 321° |
| 2026-05-05 18:17 | 37.40023 | 126.51467 | 1387 ft | 135 kts | 321° |
| 2026-05-05 18:18 | 37.40785 | 126.50790 | 1209 ft | 134 kts | 321° |
| 2026-05-05 18:18 | 37.41542 | 126.50115 | 1031 ft | 134 kts | 321° |
| 2026-05-05 18:18 | 37.42305 | 126.49437 | 852 ft | 133 kts | 321° |
| 2026-05-05 18:18 | 37.43060 | 126.48765 | 676 ft | 133 kts | 321° |
| 2026-05-05 18:19 | 37.43818 | 126.48091 | 498 ft | 133 kts | 321° |
| 2026-05-05 18:19 | 37.44563 | 126.47428 | 321 ft | 131 kts | 321° |
| 2026-05-05 18:19 | 37.45293 | 126.46780 | 141 ft | 123 kts | 321° |
| 2026-05-05 18:19 | 37.45959 | 126.46188 | 30 ft | 109 kts | 323° |
| 2026-05-05 18:20 | 37.46449 | 126.45719 | 29 ft | 64 kts | 327° |
| 2026-05-05 18:20 | 37.46728 | 126.45479 | 29 ft | 39 kts | 324° |
| 2026-05-05 18:20 | 37.46944 | 126.45296 | 29 ft | 35 kts | 326° |
| 2026-05-05 18:20 | 37.47139 | 126.45122 | 29 ft | 33 kts | 326° |
| 2026-05-05 18:21 | 37.47317 | 126.44957 | 29 ft | 30 kts | 320° |
| 2026-05-05 18:21 | 37.47445 | 126.44759 | 29 ft | 28 kts | 299° |
| 2026-05-05 18:21 | 37.47513 | 126.44591 | 29 ft | 19 kts | 296° |
| 2026-05-05 18:21 | 37.47590 | 126.44464 | 29 ft | 18 kts | 324° |
| 2026-05-05 18:22 | 37.47695 | 126.44370 | 29 ft | 18 kts | 326° |
| 2026-05-05 18:22 | 37.47784 | 126.44263 | 29 ft | 17 kts | 276° |
| 2026-05-05 18:22 | 37.47728 | 126.44132 | 29 ft | 17 kts | 234° |
| 2026-05-05 18:22 | 37.47655 | 126.44003 | 29 ft | 18 kts | 235° |
| 2026-05-05 18:23 | 37.47564 | 126.43899 | 29 ft | 18 kts | 199° |
| 2026-05-05 18:23 | 37.47452 | 126.43858 | 29 ft | 17 kts | 148° |
| 2026-05-05 18:23 | 37.47351 | 126.43947 | 29 ft | 17 kts | 145° |
| 2026-05-05 18:23 | 37.47249 | 126.44037 | 29 ft | 18 kts | 145° |
| 2026-05-05 18:24 | 37.47146 | 126.44130 | 29 ft | 18 kts | 145° |
| 2026-05-05 18:24 | 37.47043 | 126.44221 | 29 ft | 18 kts | 145° |
| 2026-05-05 18:24 | 37.46938 | 126.44315 | 29 ft | 18 kts | 143° |
| 2026-05-05 18:24 | 37.46835 | 126.44407 | 29 ft | 18 kts | 144° |
| 2026-05-05 18:25 | 37.46729 | 126.44501 | 29 ft | 18 kts | 147° |
| 2026-05-05 18:25 | 37.46652 | 126.44496 | 29 ft | 18 kts | 227° |
| 2026-05-05 18:25 | 37.46582 | 126.44343 | 29 ft | 11 kts | 275° |
| 2026-05-05 18:25 | 37.46622 | 126.44251 | 29 ft | 12 kts | 303° |
| 2026-05-05 18:26 | 37.46638 | 126.44221 | 29 ft | 0 kts | 303° |